ケアンズ の空港の天気 - METARとTAF

ケアンズ国際空港 ( YBCS / CNS ) - オーストラリア クイーンズランド州ケアンズ
飛行場実況気象(Metar)
観測時間06/16 19:00 AEST (06/16 09:00 UTC)
風向・風速南南東 3m/s
視程10km以上
天気現象
全天の4割程度の雲 雲底高度 1890m
気温23℃
湿度78%
気圧1016hPa
METARYBCS 160900Z AUTO 15005KT 9999 // SCT062 23/19 Q1016 RMK RF00.0/000.0 NOSIG
過去の天気等 Google飛行場航空写真 Wunderground天気予報

過去48時間のMETAR

飛行場予報(TAF)
発表時間: 6/16 15:02 AEST (6/16 05:02 UTC)
予報対象時間: 16日16時 AEST ~ 17日16時 AEST
風向・風速南東 6m/s
視程10km以上
少しの雲 雲底高度 1070m
16日18時 AEST から
風向・風速南南東 4m/s
視程10km以上
少しの雲 雲底高度 910m
17日12時 AEST から
風向・風速南東 6m/s
視程10km以上
少しの雲 雲底高度 1070m
TAF YBCS 160502Z 1606/1706 13012KT 9999 FEW035
FM160800 16008KT 9999 FEW030
FM170200 13012KT 9999 FEW035